Chennai, India

9:06 PM IST on September 28, 2016 (GMT +0530)
Chennai International | | Change Station

Elev 52 ft 12.99 °N, 80.18 °E | Updated 6 minutes ago

Scattered Clouds
Scattered Clouds
84 °F
Feels Like 98 °F
N
0
Wind Variable Wind from North

Today
High -- | Low -- °F
--% Chance of Precip.
Yesterday
High -- | Low -- °F
Precip. -- in
Pressure 29.65 in
Visibility 2.8 miles
Clouds Scattered Clouds 2000 ft
Scattered Clouds 10000 ft
Heat Index 98 °F
Dew Point 81 °F
Humidity 89%
Rainfall 0.00 in
Snow Depth Not available.
5:58 AM 6:01 PM
Waning Crescent, 5% visible
METAR VOMM 281530Z 00000KT 4500 BR SCT020 SCT100 29/27 Q1004 NOSIG
Pressure 29.65 in
Visibility 2.8 miles
Clouds Scattered Clouds 2000 ft
Scattered Clouds 10000 ft
Heat Index 98 °F
Dew Point 81 °F
Humidity 89%
Rainfall 0.00 in
Snow Depth Not available.
5:58 AM 6:01 PM
Waning Crescent, 5% visible
METAR VOMM 281530Z 00000KT 4500 BR SCT020 SCT100 29/27 Q1004 NOSIG

10-Day Weather Forecast

No radar image for this location.
×

Almanac

Astronomy

Sep. 28, 2016 Rise Set
Actual Time
Civil Twilight
Nautical Twilight
Astronomical Twilight
Moon
Length of Visible Light
Length of Day
Tomorrow will be .
, % of the Moon is Illuminated

Today's Extremes

Country Highs Country Lows

Community

WunderPhotos

Upload Photos

1,942,279 photos uploaded!

WunderBlog® & News

Nearby

Air Quality

  Air Quality AQ Index Pollutant
Not available.

Snow Depth

Station Depth Elevation

Earthquake Activity

City Distance Mag. Time & Date
Minimum magnitude displayed is 2.5.

Coastal Water Temperatures

Place Temperature

Stations

Nearby Weather Stations

Station Location Temp. Windchill Dew Point Humidity Wind Precip. Elev Updated Type